Time,TemperatureF,DewpointF,PressureIn,WindDirection,WindDirectionDegrees,WindSpeedMPH,WindSpeedGustMPH,Humidity,HourlyPrecipIn,Conditions,Clouds,dailyrainin,SolarRadiationWatts/m^2,SoftwareType,DateUTC
2013-02-01 00:00:00,6.0,0.0,-100.00,WNW,292,7.0,-999.0,77,-99.99,,,-99.99,0.000000,,2013-02-01 06:00:00,
2013-02-01 00:42:00,6.0,0.0,-100.00,WNW,292,7.0,-999.0,77,-99.99,,,-99.99,0.000000,,2013-02-01 06:42:00,
2013-02-01 00:52:00,6.0,0.0,-100.00,WNW,292,7.0,-999.0,77,-99.99,,,-99.99,0.000000,,2013-02-01 06:52:00,
2013-02-01 03:00:00,3.0,-2.0,-100.00,WNW,292,8.0,-999.0,77,-99.99,,,-99.99,0.000000,,2013-02-01 09:00:00,
2013-02-01 03:42:00,3.0,-2.0,-100.00,WNW,292,8.0,-999.0,77,-99.99,,,-99.99,0.000000,,2013-02-01 09:42:00,
2013-02-01 03:52:00,3.0,-2.0,-100.00,WNW,292,8.0,-999.0,77,-99.99,,,-99.99,0.000000,,2013-02-01 09:52:00,
2013-02-01 06:00:00,2.0,-3.0,-100.00,WNW,292,9.0,-999.0,78,-99.99,,,-99.99,0.000000,,2013-02-01 12:00:00,
2013-02-01 06:32:00,2.0,-3.0,-100.00,WNW,292,9.0,-999.0,78,-99.99,,,-99.99,0.000000,,2013-02-01 12:32:00,
2013-02-01 06:42:00,2.0,-3.0,-100.00,WNW,292,9.0,-999.0,78,-99.99,,,-99.99,0.000000,,2013-02-01 12:42:00,
2013-02-01 06:52:00,2.0,-3.0,-100.00,WNW,292,9.0,-999.0,78,-99.99,,,-99.99,0.000000,,2013-02-01 12:52:00,
2013-02-01 09:00:00,-1.0,-7.0,-100.00,WNW,292,5.0,-999.0,72,-99.99,,,-99.99,175.160004,,2013-02-01 15:00:00,
2013-02-01 09:42:00,-1.0,-7.0,-100.00,WNW,292,5.0,-999.0,72,-99.99,,,-99.99,175.160004,,2013-02-01 15:42:00,
2013-02-01 09:52:00,-1.0,-7.0,-100.00,WNW,292,5.0,-999.0,72,-99.99,,,-99.99,175.160004,,2013-02-01 15:52:00,
2013-02-01 12:00:00,3.0,-6.0,-100.00,WSW,247,8.0,-999.0,65,-99.99,,,-99.99,489.519989,,2013-02-01 18:00:00,
2013-02-01 12:32:00,3.0,-6.0,-100.00,WSW,247,8.0,-999.0,65,-99.99,,,-99.99,489.519989,,2013-02-01 18:32:00,
2013-02-01 12:42:00,3.0,-6.0,-100.00,WSW,247,8.0,-999.0,65,-99.99,,,-99.99,489.519989,,2013-02-01 18:42:00,
2013-02-01 12:53:00,3.0,-6.0,-100.00,WSW,247,8.0,-999.0,65,-99.99,,,-99.99,489.519989,,2013-02-01 18:53:00,
2013-02-01 15:00:00,3.0,-8.0,-100.00,WSW,247,8.0,-999.0,61,-99.99,,,-99.99,329.440002,,2013-02-01 21:00:00,
2013-02-01 15:32:00,3.0,-8.0,-100.00,WSW,247,8.0,-999.0,61,-99.99,,,-99.99,329.440002,,2013-02-01 21:32:00,
2013-02-01 15:42:00,3.0,-8.0,-100.00,WSW,247,8.0,-999.0,61,-99.99,,,-99.99,329.440002,,2013-02-01 21:42:00,
2013-02-01 15:52:00,3.0,-8.0,-100.00,WSW,247,8.0,-999.0,61,-99.99,,,-99.99,329.440002,,2013-02-01 21:52:00,
2013-02-01 18:00:00,-1.0,-10.0,-100.00,WSW,247,7.0,-999.0,64,-99.99,,,-99.99,0.000000,,2013-02-02 00:00:00,
2013-02-01 18:42:00,-1.0,-10.0,-100.00,WSW,247,7.0,-999.0,64,-99.99,,,-99.99,0.000000,,2013-02-02 00:42:00,
2013-02-01 18:52:00,-1.0,-10.0,-100.00,WSW,247,7.0,-999.0,64,-99.99,,,-99.99,0.000000,,2013-02-02 00:52:00,
2013-02-01 21:00:00,1.0,-9.0,-100.00,West,270,9.0,-999.0,61,-99.99,,,-99.99,0.000000,,2013-02-02 03:00:00,
2013-02-01 21:42:00,1.0,-9.0,-100.00,West,270,9.0,-999.0,61,-99.99,,,-99.99,0.000000,,2013-02-02 03:42:00,
2013-02-01 21:52:00,1.0,-9.0,-100.00,West,270,9.0,-999.0,61,-99.99,,,-99.99,0.000000,,2013-02-02 03:52:00,